createdAt,value
2022-11-03T00:01:46.655Z,101127.13
2022-11-03T00:04:15.337Z,101128.50
2022-11-03T00:06:44.180Z,101123.97
2022-11-03T00:09:12.682Z,101119.41
2022-11-03T00:11:41.504Z,101120.72
2022-11-03T00:14:09.423Z,101122.34
2022-11-03T00:16:36.469Z,101117.53
2022-11-03T00:19:03.390Z,101118.91
2022-11-03T00:21:30.482Z,101117.63
2022-11-03T00:23:57.215Z,101113.06
2022-11-03T00:26:25.091Z,101106.63
2022-11-03T00:28:54.108Z,101106.81
2022-11-03T00:31:26.891Z,101101.78
2022-11-03T00:33:54.865Z,101090.16
2022-11-03T00:36:26.112Z,101085.34
2022-11-03T00:38:52.913Z,101084.53
2022-11-03T00:41:21.056Z,101079.41
2022-11-03T00:43:48.134Z,101071.47
2022-11-03T00:46:14.749Z,101072.03
2022-11-03T00:48:41.540Z,101070.81
2022-11-03T00:51:11.053Z,101067.66
2022-11-03T00:53:45.831Z,101060.41
2022-11-03T00:56:17.683Z,101061.03
2022-11-03T00:58:44.413Z,101064.88
2022-11-03T01:01:13.390Z,101072.19
2022-11-03T01:03:41.913Z,101072.75
2022-11-03T01:06:28.370Z,101066.91
2022-11-03T01:08:55.026Z,101065.78
2022-11-03T01:11:42.419Z,101059.34
2022-11-03T01:14:10.832Z,101062.84
2022-11-03T01:16:37.509Z,101057.16
2022-11-03T01:19:04.379Z,101051.16
2022-11-03T01:21:30.961Z,101052.53
2022-11-03T01:24:01.735Z,101051.22
2022-11-03T01:26:29.025Z,101044.78
2022-11-03T01:28:55.604Z,101052.34
2022-11-03T01:31:24.740Z,101050.25
2022-11-03T01:33:53.226Z,101041.88
2022-11-03T01:36:20.429Z,101050.03
2022-11-03T01:38:47.108Z,101039.75
2022-11-03T01:41:16.922Z,101047.25
2022-11-03T01:43:43.712Z,101042.94
2022-11-03T01:46:12.944Z,101033.09
2022-11-03T01:48:44.532Z,101029.03
2022-11-03T01:51:14.858Z,101024.47
2022-11-03T01:53:47.001Z,101024.25
2022-11-03T01:56:15.914Z,101022.88
2022-11-03T01:58:45.003Z,101012.41
2022-11-03T02:01:12.652Z,101012.56
2022-11-03T02:03:42.779Z,101009.47
2022-11-03T02:06:10.078Z,101006.28
2022-11-03T02:08:44.001Z,101001.25
2022-11-03T02:11:29.100Z,100993.59
2022-11-03T02:13:55.873Z,100995.91
2022-11-03T02:16:25.409Z,100993.06
2022-11-03T02:18:54.251Z,100987.47
2022-11-03T02:21:44.055Z,100986.31
2022-11-03T02:24:13.520Z,100982.00
2022-11-03T02:26:42.170Z,100981.75
2022-11-03T02:29:08.809Z,100970.88
2022-11-03T02:31:41.657Z,100960.81
2022-11-03T02:34:21.578Z,100960.81
2022-11-03T02:37:04.728Z,100955.06
2022-11-03T02:39:37.477Z,100949.59
2022-11-03T02:42:05.271Z,100945.53
2022-11-03T02:44:34.103Z,100940.66
2022-11-03T02:47:05.856Z,100931.44
2022-11-03T02:49:37.682Z,100934.63
2022-11-03T02:52:06.410Z,100926.66
2022-11-03T02:54:39.013Z,100932.53
2022-11-03T02:57:16.513Z,100929.94
2022-11-03T03:00:06.411Z,100916.44
2022-11-03T03:02:52.901Z,100908.97
2022-11-03T03:05:23.060Z,100910.47
2022-11-03T03:07:55.474Z,100904.13
2022-11-03T03:10:26.585Z,100898.25
2022-11-03T03:12:56.451Z,100892.38
2022-11-03T03:15:38.878Z,100903.94
2022-11-03T03:18:31.396Z,100899.63
2022-11-03T03:21:21.069Z,100891.28
2022-11-03T03:23:55.661Z,100896.78
2022-11-03T03:26:33.175Z,100881.78
2022-11-03T03:29:10.991Z,100889.25
2022-11-03T03:31:40.917Z,100876.34
2022-11-03T03:34:23.794Z,100872.09
2022-11-03T03:36:58.227Z,100871.94
2022-11-03T03:39:28.371Z,100870.94
2022-11-03T03:41:56.707Z,100865.91
2022-11-03T03:44:24.865Z,100867.22
2022-11-03T03:46:58.278Z,100863.72
2022-11-03T03:49:24.984Z,100849.00
2022-11-03T03:51:51.732Z,100863.72
2022-11-03T03:54:18.361Z,100859.41
2022-11-03T03:57:00.708Z,100853.56
2022-11-03T03:59:27.748Z,100853.56
2022-11-03T04:01:54.440Z,100852.25
2022-11-03T04:04:21.834Z,100851.44
2022-11-03T04:06:48.383Z,100850.94
2022-11-03T04:09:15.116Z,100840.78
2022-11-03T04:12:00.834Z,100842.66
2022-11-03T04:14:46.230Z,100845.09
2022-11-03T04:17:54.225Z,100835.41
2022-11-03T04:20:39.178Z,100837.97
2022-11-03T04:23:05.787Z,100833.28
2022-11-03T04:25:32.473Z,100834.66
2022-11-03T04:27:59.370Z,100832.31
2022-11-03T04:30:26.417Z,100832.59
2022-11-03T04:32:54.462Z,100825.63
2022-11-03T04:35:26.443Z,100824.00
2022-11-03T04:38:16.550Z,100820.00
2022-11-03T04:40:53.610Z,100809.53
2022-11-03T04:43:24.544Z,100815.38
2022-11-03T04:45:51.312Z,100811.56
2022-11-03T04:48:25.235Z,100812.44
2022-11-03T04:50:58.293Z,100816.25
2022-11-03T04:53:28.262Z,100808.47
2022-11-03T04:55:55.084Z,100809.28
2022-11-03T04:58:34.589Z,100811.16
2022-11-03T05:01:03.761Z,100805.84
2022-11-03T05:03:33.910Z,100806.97
2022-11-03T05:06:26.309Z,100806.50
2022-11-03T05:09:00.421Z,100799.84
2022-11-03T05:11:42.882Z,100793.09
2022-11-03T05:14:22.145Z,100792.84
2022-11-03T05:16:51.788Z,100785.63
2022-11-03T05:19:23.014Z,100772.75
2022-11-03T05:21:50.714Z,100773.84
2022-11-03T05:24:21.236Z,100767.34
2022-11-03T05:26:48.549Z,100770.53
2022-11-03T05:29:26.517Z,100775.00
2022-11-03T05:31:55.095Z,100764.31
2022-11-03T05:34:32.327Z,100764.31
2022-11-03T05:37:04.487Z,100768.34
2022-11-03T05:39:36.683Z,100756.31
2022-11-03T05:42:22.695Z,100762.00
2022-11-03T05:44:51.583Z,100759.56
2022-11-03T05:47:31.331Z,100748.03
2022-11-03T05:50:08.048Z,100744.00
2022-11-03T05:52:34.669Z,100743.09
2022-11-03T05:55:02.200Z,100726.53
2022-11-03T05:57:30.308Z,100718.00
2022-11-03T05:59:57.083Z,100717.69
2022-11-03T06:02:37.470Z,100714.63
2022-11-03T06:05:34.391Z,100709.97
2022-11-03T06:08:12.893Z,100697.28
2022-11-03T06:10:45.170Z,100697.44
2022-11-03T06:13:16.243Z,100698.06
2022-11-03T06:15:45.691Z,100703.28
2022-11-03T06:18:22.498Z,100711.97
2022-11-03T06:20:52.669Z,100715.75
2022-11-03T06:23:20.979Z,100717.16
2022-11-03T06:25:48.810Z,100721.19
2022-11-03T06:28:30.254Z,100723.13
2022-11-03T06:30:57.402Z,100719.41
2022-11-03T06:33:29.094Z,100704.91
2022-11-03T06:36:01.757Z,100701.19
2022-11-03T06:38:31.524Z,100693.03
2022-11-03T06:40:58.861Z,100690.34
2022-11-03T06:43:31.806Z,100693.16
2022-11-03T06:46:01.103Z,100682.47
2022-11-03T06:48:29.800Z,100690.88
2022-11-03T06:50:58.962Z,100685.81
2022-11-03T06:53:29.483Z,100686.56
2022-11-03T06:55:56.409Z,100680.34
2022-11-03T06:58:30.681Z,100681.53
2022-11-03T07:01:03.653Z,100680.78
2022-11-03T07:03:37.993Z,100680.59
2022-11-03T07:06:10.750Z,100656.25
2022-11-03T07:08:41.979Z,100654.31
2022-11-03T07:11:30.084Z,100657.00
2022-11-03T07:14:18.150Z,100654.78
2022-11-03T07:16:48.625Z,100663.91
2022-11-03T07:19:23.653Z,100667.69
2022-11-03T07:21:51.279Z,100665.06
2022-11-03T07:24:31.118Z,100666.78
2022-11-03T07:27:14.107Z,100652.06
2022-11-03T07:29:41.038Z,100654.00
2022-11-03T07:32:23.147Z,100654.09
2022-11-03T07:34:52.993Z,100634.78
2022-11-03T07:37:25.961Z,100637.00
2022-11-03T07:39:53.204Z,100625.97
2022-11-03T07:42:23.062Z,100626.81
2022-11-03T07:44:55.818Z,100623.63
2022-11-03T07:47:28.031Z,100622.09
2022-11-03T07:49:56.177Z,100617.28
2022-11-03T07:52:24.858Z,100617.34
2022-11-03T07:54:54.989Z,100605.50
2022-11-03T07:57:23.292Z,100599.63
2022-11-03T07:59:53.887Z,100587.59
2022-11-03T08:02:20.692Z,100582.00
2022-11-03T08:04:47.359Z,100575.03
2022-11-03T08:07:13.862Z,100576.66
2022-11-03T08:09:40.534Z,100582.59
2022-11-03T08:12:07.793Z,100582.59
2022-11-03T08:14:34.366Z,100564.34
2022-11-03T08:17:00.956Z,100560.59
2022-11-03T08:19:27.788Z,100554.13
2022-11-03T08:21:54.471Z,100543.34
2022-11-03T08:24:21.026Z,100542.25
2022-11-03T08:26:47.605Z,100547.63
2022-11-03T08:29:14.534Z,100549.22
2022-11-03T08:31:41.641Z,100559.97
2022-11-03T08:34:08.228Z,100554.38
2022-11-03T08:36:34.902Z,100551.97
2022-11-03T08:39:01.614Z,100551.41
2022-11-03T08:41:28.350Z,100546.59
2022-11-03T08:43:55.274Z,100560.56
2022-11-03T08:46:21.988Z,100551.72
2022-11-03T08:48:48.808Z,100560.59
2022-11-03T08:51:16.365Z,100555.19
2022-11-03T08:53:43.312Z,100545.78
2022-11-03T08:56:12.896Z,100533.16
2022-11-03T08:58:46.168Z,100527.19
2022-11-03T09:01:13.081Z,100517.78
2022-11-03T09:03:40.579Z,100524.44
2022-11-03T09:06:09.289Z,100516.25
2022-11-03T09:11:27.826Z,100526.94
2022-11-03T09:13:54.479Z,100522.78
2022-11-03T09:16:21.174Z,100523.53
2022-11-03T09:18:47.818Z,100520.78
2022-11-03T09:21:15.416Z,100511.75
2022-11-03T09:23:42.031Z,100517.16
2022-11-03T09:26:09.101Z,100504.31
2022-11-03T09:28:35.761Z,100504.78
2022-11-03T09:31:02.512Z,100500.81
2022-11-03T09:33:29.765Z,100494.06
2022-11-03T09:35:57.005Z,100488.09
2022-11-03T09:38:23.764Z,100478.09
2022-11-03T09:40:50.419Z,100473.97
2022-11-03T09:43:17.080Z,100469.63
2022-11-03T09:45:44.062Z,100464.91
2022-11-03T09:48:13.089Z,100462.84
2022-11-03T09:50:40.495Z,100467.00
2022-11-03T09:53:11.600Z,100452.25
2022-11-03T09:55:39.683Z,100456.44
2022-11-03T09:58:14.805Z,100439.88
2022-11-03T10:00:42.059Z,100436.28
2022-11-03T10:03:14.384Z,100417.06
2022-11-03T10:05:44.130Z,100412.28
2022-11-03T10:08:28.121Z,100425.78
2022-11-03T10:10:56.261Z,100429.72
2022-11-03T10:13:52.967Z,100423.66
2022-11-03T10:16:22.919Z,100401.50
2022-11-03T10:18:50.178Z,100398.72
2022-11-03T10:21:34.046Z,100399.13
2022-11-03T10:24:00.975Z,100400.97
2022-11-03T10:26:27.854Z,100394.69
2022-11-03T10:29:05.960Z,100390.72
2022-11-03T10:31:39.953Z,100385.59
2022-11-03T10:34:39.513Z,100381.44
2022-11-03T10:37:18.167Z,100366.53
2022-11-03T10:39:45.950Z,100355.16
2022-11-03T10:42:35.391Z,100357.16
2022-11-03T10:45:20.389Z,100356.56
2022-11-03T10:48:09.248Z,100350.44
2022-11-03T10:50:35.936Z,100345.94
2022-11-03T10:53:03.701Z,100339.38
2022-11-03T10:55:30.858Z,100332.28
2022-11-03T10:57:59.054Z,100319.97
2022-11-03T11:00:25.724Z,100315.31
2022-11-03T11:02:58.899Z,100311.34
2022-11-03T11:05:25.717Z,100311.34
2022-11-03T11:07:54.277Z,100304.31
2022-11-03T11:10:27.009Z,100303.03
2022-11-03T11:13:18.922Z,100296.97
2022-11-03T11:15:47.637Z,100294.47
2022-11-03T11:18:29.455Z,100296.47
2022-11-03T11:20:59.686Z,100279.47
2022-11-03T11:23:29.304Z,100278.78
2022-11-03T11:26:14.499Z,100276.63
2022-11-03T11:28:43.157Z,100283.72
2022-11-03T11:31:33.392Z,100281.34
2022-11-03T11:34:08.847Z,100275.00
2022-11-03T11:36:37.056Z,100275.06
2022-11-03T11:39:11.185Z,100276.72
2022-11-03T11:42:15.477Z,100274.53
2022-11-03T11:44:54.917Z,100266.84
2022-11-03T11:47:32.151Z,100276.00
2022-11-03T11:50:10.753Z,100264.75
2022-11-03T11:52:47.483Z,100249.28
2022-11-03T11:55:41.929Z,100252.72
2022-11-03T11:58:20.380Z,100243.59
2022-11-03T12:01:00.204Z,100235.63
2022-11-03T12:03:49.365Z,100229.41
2022-11-03T12:06:19.376Z,100215.94
2022-11-03T12:08:45.913Z,100217.47
2022-11-03T12:11:19.466Z,100207.00
2022-11-03T12:13:49.246Z,100192.13
2022-11-03T12:16:31.094Z,100183.81
2022-11-03T12:19:18.280Z,100183.97
2022-11-03T12:21:47.505Z,100176.88
2022-11-03T12:24:32.567Z,100173.97
2022-11-03T12:27:00.313Z,100166.34
2022-11-03T12:29:26.953Z,100156.59
2022-11-03T12:31:54.334Z,100165.19
2022-11-03T12:34:23.868Z,100157.91
2022-11-03T12:36:55.784Z,100153.50
2022-11-03T12:39:22.820Z,100165.25
2022-11-03T12:41:49.484Z,100160.88
2022-11-03T12:44:16.174Z,100152.25
2022-11-03T12:46:43.434Z,100151.06
2022-11-03T12:49:10.135Z,100148.25
2022-11-03T12:51:36.792Z,100130.31
2022-11-03T12:54:03.508Z,100126.59
2022-11-03T12:56:30.101Z,100128.22
2022-11-03T12:58:56.823Z,100115.41
2022-11-03T13:01:23.553Z,100110.50
2022-11-03T13:03:50.257Z,100113.31
2022-11-03T13:06:16.982Z,100095.19
2022-11-03T13:08:44.789Z,100087.66
2022-11-03T13:11:32.023Z,100081.19
2022-11-03T13:13:59.250Z,100076.97
2022-11-03T13:16:25.899Z,100072.59
2022-11-03T13:18:52.753Z,100051.06
2022-11-03T13:21:19.385Z,100037.75
2022-11-03T13:23:45.966Z,100020.34
2022-11-03T13:26:12.580Z,100013.22
2022-11-03T13:28:39.305Z,100013.72
2022-11-03T13:31:06.230Z,99990.13
2022-11-03T13:33:32.806Z,99982.44
2022-11-03T13:35:59.476Z,99974.69
2022-11-03T13:38:26.260Z,99968.28
2022-11-03T13:40:56.651Z,99950.94
2022-11-03T13:43:24.900Z,99947.25
2022-11-03T13:45:52.818Z,99945.06
2022-11-03T13:49:21.543Z,99951.81
2022-11-03T13:51:07.531Z,99957.00
2022-11-03T13:56:22.265Z,99944.47
2022-11-03T14:01:37.719Z,99934.56
2022-11-03T14:06:51.957Z,99931.59
2022-11-03T14:09:18.540Z,99928.44
2022-11-03T14:12:03.739Z,99931.78
2022-11-03T14:14:30.387Z,99916.63
2022-11-03T14:16:57.129Z,99915.09
2022-11-03T14:19:29.433Z,99914.03
2022-11-03T14:22:02.604Z,99917.06
2022-11-03T14:24:29.299Z,99907.47
2022-11-03T14:26:55.874Z,99906.63
2022-11-03T14:29:22.567Z,99909.81
2022-11-03T14:31:49.204Z,99893.06
2022-11-03T14:34:16.089Z,99888.69
2022-11-03T14:36:42.921Z,99893.97
2022-11-03T14:39:09.619Z,99872.91
2022-11-03T14:41:54.804Z,99864.94
2022-11-03T14:44:21.361Z,99857.91
2022-11-03T14:46:48.047Z,99853.13
2022-11-03T14:49:14.710Z,99846.16
2022-11-03T14:51:41.318Z,99837.63
2022-11-03T14:54:07.908Z,99833.91
2022-11-03T14:56:34.483Z,99836.03
2022-11-03T14:59:01.022Z,99832.16
2022-11-03T15:01:27.904Z,99826.19
2022-11-03T15:03:54.611Z,99828.38
2022-11-03T15:06:21.645Z,99821.38
2022-11-03T15:08:53.439Z,99822.72
2022-11-03T15:11:22.882Z,99823.63
2022-11-03T15:13:52.317Z,99822.34
2022-11-03T15:16:19.121Z,99818.41
2022-11-03T15:18:45.686Z,99831.28
2022-11-03T15:21:12.414Z,99830.78
2022-11-03T15:26:26.020Z,99821.09
2022-11-03T15:28:52.708Z,99820.00
2022-11-03T15:31:19.312Z,99812.41
2022-11-03T15:33:45.962Z,99808.13
2022-11-03T15:36:12.664Z,99812.19
2022-11-03T15:38:39.581Z,99814.72
2022-11-03T15:41:19.383Z,99797.53
2022-11-03T15:43:47.170Z,99790.13
2022-11-03T15:46:15.344Z,99770.66
2022-11-03T15:48:43.193Z,99762.56
2022-11-03T15:51:10.127Z,99753.97
2022-11-03T15:53:36.994Z,99764.25
2022-11-03T15:56:04.044Z,99757.63
2022-11-03T15:58:34.422Z,99751.53
2022-11-03T16:01:03.154Z,99751.53
2022-11-03T16:03:31.807Z,99731.38
2022-11-03T16:05:59.113Z,99726.78
2022-11-03T16:08:26.191Z,99727.78
2022-11-03T16:10:57.713Z,99729.41
2022-11-03T16:13:25.073Z,99724.81
2022-11-03T16:15:53.244Z,99730.41
2022-11-03T16:18:20.350Z,99721.22
2022-11-03T16:20:47.075Z,99724.44
2022-11-03T16:23:13.679Z,99723.63
2022-11-03T16:25:40.421Z,99719.03
2022-11-03T16:28:07.297Z,99728.22
2022-11-03T16:30:35.223Z,99733.63
2022-11-03T16:33:01.777Z,99732.81
2022-11-03T16:35:29.664Z,99736.31
2022-11-03T16:37:56.559Z,99740.59
2022-11-03T16:40:23.661Z,99746.56
2022-11-03T16:42:50.523Z,99730.41
2022-11-03T16:45:22.249Z,99738.00
2022-11-03T16:47:50.563Z,99724.31
2022-11-03T16:50:18.797Z,99709.03
2022-11-03T16:52:46.644Z,99706.44
2022-11-03T16:55:14.974Z,99711.00
2022-11-03T16:57:42.360Z,99700.84
2022-11-03T17:00:13.874Z,99695.19
2022-11-03T17:02:40.897Z,99682.59
2022-11-03T17:05:08.404Z,99677.06
2022-11-03T17:07:35.237Z,99670.69
2022-11-03T17:10:02.011Z,99664.28
2022-11-03T17:12:28.572Z,99654.81
2022-11-03T17:14:56.768Z,99658.84
2022-11-03T17:17:24.245Z,99657.84
2022-11-03T17:19:51.614Z,99650.84
2022-11-03T17:22:18.401Z,99641.97
2022-11-03T17:24:45.145Z,99635.19
2022-11-03T17:27:11.853Z,99624.66
2022-11-03T17:29:42.805Z,99616.84
2022-11-03T17:32:18.705Z,99616.16
2022-11-03T17:34:45.466Z,99610.59
2022-11-03T17:37:12.155Z,99602.63
2022-11-03T17:39:41.306Z,99601.72
2022-11-03T17:42:23.242Z,99598.44
2022-11-03T17:44:51.443Z,99594.16
2022-11-03T17:47:19.915Z,99584.13
2022-11-03T17:49:47.737Z,99582.63
2022-11-03T17:52:28.660Z,99585.19
2022-11-03T17:55:00.106Z,99579.16
2022-11-03T17:57:27.150Z,99581.13
2022-11-03T17:59:57.112Z,99604.63
2022-11-03T18:02:30.684Z,99598.22
2022-11-03T18:05:14.090Z,99610.69
2022-11-03T18:07:43.631Z,99608.97
2022-11-03T18:10:10.271Z,99612.66
2022-11-03T18:12:59.058Z,99621.50
2022-11-03T18:15:27.081Z,99620.13
2022-11-03T18:17:53.834Z,99607.56
2022-11-03T18:20:30.383Z,99600.50
2022-11-03T18:23:15.593Z,99581.84
2022-11-03T18:25:42.362Z,99581.84
2022-11-03T18:28:09.267Z,99582.25
2022-11-03T18:30:36.487Z,99576.72
2022-11-03T18:33:03.205Z,99577.13
2022-11-03T18:35:32.554Z,99571.91
2022-11-03T18:37:59.632Z,99571.50
2022-11-03T18:40:26.622Z,99570.84
2022-11-03T18:42:53.249Z,99568.34
2022-11-03T18:45:20.065Z,99563.78
2022-11-03T18:47:46.813Z,99568.00
2022-11-03T18:50:17.550Z,99568.00
2022-11-03T18:52:52.007Z,99556.66
2022-11-03T18:55:18.887Z,99562.16
2022-11-03T18:57:45.499Z,99564.13
2022-11-03T19:00:23.038Z,99573.09
2022-11-03T19:02:50.638Z,99571.47
2022-11-03T19:05:18.979Z,99573.38
2022-11-03T19:07:49.193Z,99585.66
2022-11-03T19:10:22.219Z,99580.88
2022-11-03T19:12:49.086Z,99583.06
2022-11-03T19:15:22.686Z,99585.75
2022-11-03T19:17:57.413Z,99582.06
2022-11-03T19:20:25.448Z,99574.66
2022-11-03T19:22:52.746Z,99572.25
2022-11-03T19:25:19.452Z,99562.09
2022-11-03T19:27:47.903Z,99560.75
2022-11-03T19:30:19.362Z,99545.75
2022-11-03T19:32:48.945Z,99547.50
2022-11-03T19:35:18.476Z,99539.91
2022-11-03T19:37:46.683Z,99540.22
2022-11-03T19:40:17.009Z,99541.03
2022-11-03T19:42:45.001Z,99536.19
2022-11-03T19:45:16.061Z,99533.88
2022-11-03T19:48:22.404Z,99524.34
2022-11-03T19:50:45.313Z,99514.94
2022-11-03T19:53:18.557Z,99507.34
2022-11-03T19:55:45.257Z,99504.78
2022-11-03T19:58:18.726Z,99489.56
2022-11-03T20:00:46.341Z,99492.66
2022-11-03T20:03:13.544Z,99488.66
2022-11-03T20:05:44.990Z,99500.66
2022-11-03T20:08:18.778Z,99489.84
2022-11-03T20:10:47.952Z,99494.66
2022-11-03T20:13:23.853Z,99483.06
2022-11-03T20:15:53.566Z,99487.63
2022-11-03T20:18:23.212Z,99489.81
2022-11-03T20:20:50.195Z,99488.66
2022-11-03T20:23:26.201Z,99488.22
2022-11-03T20:25:53.670Z,99480.47
2022-11-03T20:28:28.265Z,99481.13
2022-11-03T20:30:56.309Z,99470.38
2022-11-03T20:33:24.713Z,99477.34
2022-11-03T20:35:53.420Z,99473.19
2022-11-03T20:38:20.884Z,99465.28
2022-11-03T20:40:49.043Z,99463.22
2022-11-03T20:43:38.387Z,99465.81
2022-11-03T20:46:20.600Z,99456.25
2022-11-03T20:48:47.432Z,99455.28
2022-11-03T20:51:19.772Z,99453.13
2022-11-03T20:53:47.883Z,99448.84
2022-11-03T20:56:20.225Z,99452.41
2022-11-03T20:58:47.444Z,99450.56
2022-11-03T21:01:19.852Z,99454.94
2022-11-03T21:03:59.341Z,99445.00
2022-11-03T21:06:28.553Z,99452.53
2022-11-03T21:08:55.374Z,99455.66
2022-11-03T21:11:24.866Z,99473.53
2022-11-03T21:13:52.724Z,99463.03
2022-11-03T21:16:37.904Z,99475.28
2022-11-03T21:19:40.447Z,99474.91
2022-11-03T21:22:55.386Z,99481.94
2022-11-03T21:25:23.949Z,99503.34
2022-11-03T21:27:51.164Z,99521.22
2022-11-03T21:30:18.557Z,99510.97
2022-11-03T21:32:45.447Z,99510.31
2022-11-03T21:35:17.579Z,99479.34
2022-11-03T21:37:44.300Z,99454.06
2022-11-03T21:40:12.041Z,99421.09
2022-11-03T21:42:57.363Z,99441.03
2022-11-03T21:45:24.117Z,99448.44
2022-11-03T21:48:13.529Z,99458.63
2022-11-03T21:50:41.074Z,99492.81
2022-11-03T21:53:08.086Z,99522.25
2022-11-03T21:55:35.430Z,99541.00
2022-11-03T21:58:03.285Z,99546.38
2022-11-03T22:00:30.257Z,99551.16
2022-11-03T22:02:56.823Z,99547.81
2022-11-03T22:05:23.486Z,99543.81
2022-11-03T22:07:50.051Z,99560.16
2022-11-03T22:10:17.838Z,99563.34
2022-11-03T22:12:44.559Z,99557.59
2022-11-03T22:15:29.897Z,99562.75
2022-11-03T22:18:06.608Z,99558.50
2022-11-03T22:21:03.001Z,99541.13
2022-11-03T22:23:47.915Z,99540.69
2022-11-03T22:26:34.932Z,99567.56
2022-11-03T22:29:20.058Z,99561.94
2022-11-03T22:31:46.763Z,99562.69
2022-11-03T22:34:31.844Z,99564.69
2022-11-03T22:36:58.467Z,99578.63
2022-11-03T22:39:43.645Z,99580.81
2022-11-03T22:42:31.991Z,99591.03
2022-11-03T22:45:17.260Z,99596.88
2022-11-03T22:47:44.101Z,99603.78
2022-11-03T22:50:10.670Z,99603.22
2022-11-03T22:52:37.401Z,99602.66
2022-11-03T22:55:04.455Z,99598.31
2022-11-03T22:57:31.041Z,99603.19
2022-11-03T22:59:57.653Z,99604.25
2022-11-03T23:02:24.341Z,99616.03
2022-11-03T23:04:51.050Z,99626.84
2022-11-03T23:07:17.614Z,99638.66
2022-11-03T23:09:44.262Z,99637.88
2022-11-03T23:12:11.320Z,99638.66
2022-11-03T23:15:00.817Z,99635.09
2022-11-03T23:17:48.358Z,99628.16
2022-11-03T23:20:33.624Z,99644.25
2022-11-03T23:23:00.908Z,99637.00
2022-11-03T23:25:27.523Z,99635.94
2022-11-03T23:27:57.028Z,99640.44
2022-11-03T23:30:23.658Z,99637.97
2022-11-03T23:32:50.297Z,99644.50
2022-11-03T23:35:17.312Z,99649.56
2022-11-03T23:37:43.902Z,99653.63
2022-11-03T23:40:11.313Z,99667.56
2022-11-03T23:42:37.844Z,99672.94
2022-11-03T23:45:23.497Z,99680.50
2022-11-03T23:48:08.842Z,99685.84
2022-11-03T23:50:38.499Z,99690.69
2022-11-03T23:53:05.223Z,99691.47
2022-11-03T23:55:53.510Z,99694.66
2022-11-03T23:58:20.436Z,99694.66
